sensor_id;sensor_type;location;lat;lon;timestamp;pressure;altitude;pressure_sealevel;temperature;humidity
64076;BME280;50327;51.328;12.324;2022-08-01T00:00:31;53269.22;;;-144.47;59.88
64076;BME280;50327;51.328;12.324;2022-08-01T00:02:57;53267.25;;;-144.47;59.58
64076;BME280;50327;51.328;12.324;2022-08-01T00:05:22;53257.31;;;-144.47;59.58
64076;BME280;50327;51.328;12.324;2022-08-01T00:07:48;53269.22;;;-144.47;59.03
64076;BME280;50327;51.328;12.324;2022-08-01T00:10:14;53301.03;;;-144.47;58.77
64076;BME280;50327;51.328;12.324;2022-08-01T00:12:41;53316.91;;;-144.47;58.29
64076;BME280;50327;51.328;12.324;2022-08-01T00:15:08;53291.09;;;-144.47;58.17
64076;BME280;50327;51.328;12.324;2022-08-01T00:17:34;53245.41;;;-144.47;57.93
64076;BME280;50327;51.328;12.324;2022-08-01T00:20:00;53275.19;;;-144.47;57.59
64076;BME280;50327;51.328;12.324;2022-08-01T00:22:27;53308.97;;;-144.47;57.54
64076;BME280;50327;51.328;12.324;2022-08-01T00:24:53;53253.34;;;-144.47;57.19
64076;BME280;50327;51.328;12.324;2022-08-01T00:27:18;53289.09;;;-144.47;57.03
64076;BME280;50327;51.328;12.324;2022-08-01T00:29:43;53263.28;;;-144.47;56.94
64076;BME280;50327;51.328;12.324;2022-08-01T00:32:09;53249.38;;;-144.47;57.04
64076;BME280;50327;51.328;12.324;2022-08-01T00:34:34;53293.06;;;-144.47;56.99
64076;BME280;50327;51.328;12.324;2022-08-01T00:36:59;53253.34;;;-144.47;57.01
64076;BME280;50327;51.328;12.324;2022-08-01T00:39:25;53285.13;;;-144.47;57.20
64076;BME280;50327;51.328;12.324;2022-08-01T00:41:50;53227.53;;;-144.47;57.35
64076;BME280;50327;51.328;12.324;2022-08-01T00:44:16;53269.22;;;-144.47;57.79
64076;BME280;50327;51.328;12.324;2022-08-01T00:46:41;53249.38;;;-144.47;57.83
64076;BME280;50327;51.328;12.324;2022-08-01T00:49:07;53306.97;;;-144.47;57.91
64076;BME280;50327;51.328;12.324;2022-08-01T00:51:32;53261.28;;;-144.47;58.15
64076;BME280;50327;51.328;12.324;2022-08-01T00:53:59;53308.97;;;-144.47;57.87
64076;BME280;50327;51.328;12.324;2022-08-01T00:56:26;53277.19;;;-144.47;58.27
64076;BME280;50327;51.328;12.324;2022-08-01T00:58:53;53269.22;;;-144.47;58.16
64076;BME280;50327;51.328;12.324;2022-08-01T01:01:18;53259.31;;;-144.47;58.63
64076;BME280;50327;51.328;12.324;2022-08-01T01:03:46;53273.22;;;-144.47;59.01
64076;BME280;50327;51.328;12.324;2022-08-01T01:06:25;53275.19;;;-144.47;58.68
64076;BME280;50327;51.328;12.324;2022-08-01T01:09:21;53289.09;;;-144.47;58.52
64076;BME280;50327;51.328;12.324;2022-08-01T01:15:04;53261.28;;;-144.47;56.52
64076;BME280;50327;51.328;12.324;2022-08-01T01:17:51;53301.03;;;-144.47;56.19
64076;BME280;50327;51.328;12.324;2022-08-01T01:20:20;53283.13;;;-144.47;56.18
64076;BME280;50327;51.328;12.324;2022-08-01T01:25:31;53249.38;;;-144.47;55.96
64076;BME280;50327;51.328;12.324;2022-08-01T01:30:41;53275.19;;;-144.47;55.91
64076;BME280;50327;51.328;12.324;2022-08-01T01:33:09;53261.28;;;-144.47;56.25
64076;BME280;50327;51.328;12.324;2022-08-01T01:35:39;53295.06;;;-144.47;56.12
64076;BME280;50327;51.328;12.324;2022-08-01T01:38:21;53273.22;;;-144.47;55.96
64076;BME280;50327;51.328;12.324;2022-08-01T01:40:49;53273.22;;;-144.47;56.11
64076;BME280;50327;51.328;12.324;2022-08-01T01:43:16;53245.41;;;-144.47;55.93
64076;BME280;50327;51.328;12.324;2022-08-01T01:45:44;53277.19;;;-144.47;55.70
64076;BME280;50327;51.328;12.324;2022-08-01T01:48:13;53263.28;;;-144.47;55.72
64076;BME280;50327;51.328;12.324;2022-08-01T01:50:40;53249.38;;;-144.47;55.46
64076;BME280;50327;51.328;12.324;2022-08-01T01:53:08;53239.44;;;-144.47;55.54
64076;BME280;50327;51.328;12.324;2022-08-01T01:55:36;53269.22;;;-144.47;55.67
64076;BME280;50327;51.328;12.324;2022-08-01T01:58:03;53295.06;;;-144.47;55.70
64076;BME280;50327;51.328;12.324;2022-08-01T02:00:31;53289.09;;;-144.47;55.84
64076;BME280;50327;51.328;12.324;2022-08-01T02:02:57;53261.28;;;-144.47;55.88
64076;BME280;50327;51.328;12.324;2022-08-01T02:05:24;53283.13;;;-144.47;56.15
64076;BME280;50327;51.328;12.324;2022-08-01T02:07:53;53265.25;;;-144.47;56.34
64076;BME280;50327;51.328;12.324;2022-08-01T02:10:19;53263.28;;;-144.47;56.47
64076;BME280;50327;51.328;12.324;2022-08-01T02:12:46;53275.19;;;-144.47;56.60
64076;BME280;50327;51.328;12.324;2022-08-01T02:15:13;53247.38;;;-144.47;56.74
64076;BME280;50327;51.328;12.324;2022-08-01T02:17:42;53285.13;;;-144.47;56.89
64076;BME280;50327;51.328;12.324;2022-08-01T02:20:10;53249.38;;;-144.47;56.89
64076;BME280;50327;51.328;12.324;2022-08-01T02:22:47;53285.13;;;-144.47;56.96
64076;BME280;50327;51.328;12.324;2022-08-01T02:25:24;53291.09;;;-144.47;57.21
64076;BME280;50327;51.328;12.324;2022-08-01T02:30:19;53257.31;;;-144.47;57.59
64076;BME280;50327;51.328;12.324;2022-08-01T02:32:47;53269.22;;;-144.47;57.93
64076;BME280;50327;51.328;12.324;2022-08-01T02:35:23;53277.19;;;-144.47;58.06
64076;BME280;50327;51.328;12.324;2022-08-01T02:37:51;53295.06;;;-144.47;58.47
64076;BME280;50327;51.328;12.324;2022-08-01T02:40:17;53287.13;;;-144.47;58.55
64076;BME280;50327;51.328;12.324;2022-08-01T02:42:49;53297.03;;;-144.47;58.88
64076;BME280;50327;51.328;12.324;2022-08-01T02:45:17;53297.03;;;-144.47;58.94
64076;BME280;50327;51.328;12.324;2022-08-01T02:47:44;53265.25;;;-144.47;59.37
64076;BME280;50327;51.328;12.324;2022-08-01T02:50:12;53273.22;;;-144.47;59.84
64076;BME280;50327;51.328;12.324;2022-08-01T02:52:40;53308.97;;;-144.47;60.15
64076;BME280;50327;51.328;12.324;2022-08-01T02:55:08;53273.22;;;-144.47;60.66
64076;BME280;50327;51.328;12.324;2022-08-01T02:57:35;53299.03;;;-144.47;60.96
64076;BME280;50327;51.328;12.324;2022-08-01T03:00:03;53324.84;;;-144.47;61.21
64076;BME280;50327;51.328;12.324;2022-08-01T03:02:30;53293.06;;;-144.47;61.76
64076;BME280;50327;51.328;12.324;2022-08-01T03:04:57;53259.31;;;-144.47;62.06
64076;BME280;50327;51.328;12.324;2022-08-01T03:07:24;53245.41;;;-144.47;62.40
64076;BME280;50327;51.328;12.324;2022-08-01T03:09:51;53275.19;;;-144.47;62.65
64076;BME280;50327;51.328;12.324;2022-08-01T03:12:20;53285.13;;;-144.47;63.04
64076;BME280;50327;51.328;12.324;2022-08-01T03:14:50;53299.03;;;-144.47;63.25
64076;BME280;50327;51.328;12.324;2022-08-01T03:17:18;53279.16;;;-144.47;63.24
64076;BME280;50327;51.328;12.324;2022-08-01T03:19:46;53287.13;;;-144.47;63.57
64076;BME280;50327;51.328;12.324;2022-08-01T03:22:14;53305.00;;;-144.47;63.92
64076;BME280;50327;51.328;12.324;2022-08-01T03:24:41;53318.91;;;-144.47;64.12
64076;BME280;50327;51.328;12.324;2022-08-01T03:27:08;53295.06;;;-144.47;64.25
64076;BME280;50327;51.328;12.324;2022-08-01T03:29:34;53336.78;;;-144.47;64.32
64076;BME280;50327;51.328;12.324;2022-08-01T03:32:01;53301.03;;;-144.47;64.45
64076;BME280;50327;51.328;12.324;2022-08-01T03:34:28;53291.09;;;-144.47;64.47
64076;BME280;50327;51.328;12.324;2022-08-01T03:40:04;53281.16;;;-144.47;64.00
64076;BME280;50327;51.328;12.324;2022-08-01T03:42:35;53301.03;;;-144.47;64.17
64076;BME280;50327;51.328;12.324;2022-08-01T03:45:06;53318.91;;;-144.47;64.17
64076;BME280;50327;51.328;12.324;2022-08-01T03:47:34;53277.19;;;-144.47;63.95
64076;BME280;50327;51.328;12.324;2022-08-01T03:50:03;53277.19;;;-144.47;64.10
64076;BME280;50327;51.328;12.324;2022-08-01T03:52:30;53283.13;;;-144.47;64.12
64076;BME280;50327;51.328;12.324;2022-08-01T03:55:00;53275.19;;;-144.47;63.93
64076;BME280;50327;51.328;12.324;2022-08-01T03:57:28;53344.72;;;-144.47;64.28
64076;BME280;50327;51.328;12.324;2022-08-01T03:59:58;53332.81;;;-144.47;64.72
64076;BME280;50327;51.328;12.324;2022-08-01T04:02:25;53265.25;;;-144.47;64.84
64076;BME280;50327;51.328;12.324;2022-08-01T04:04:51;53265.25;;;-144.47;65.30
64076;BME280;50327;51.328;12.324;2022-08-01T04:07:33;53267.25;;;-144.47;65.46
64076;BME280;50327;51.328;12.324;2022-08-01T04:10:03;53320.88;;;-144.47;65.99
64076;BME280;50327;51.328;12.324;2022-08-01T04:12:29;53279.16;;;-144.47;65.87
64076;BME280;50327;51.328;12.324;2022-08-01T04:14:54;53293.06;;;-144.47;66.15
64076;BME280;50327;51.328;12.324;2022-08-01T04:17:20;53312.94;;;-144.47;66.11
64076;BME280;50327;51.328;12.324;2022-08-01T04:19:45;53308.97;;;-144.47;65.96
64076;BME280;50327;51.328;12.324;2022-08-01T04:22:13;53297.03;;;-144.47;65.92
64076;BME280;50327;51.328;12.324;2022-08-01T04:24:41;53320.88;;;-144.47;66.21
64076;BME280;50327;51.328;12.324;2022-08-01T04:27:13;53308.97;;;-144.47;66.22
64076;BME280;50327;51.328;12.324;2022-08-01T04:29:40;53318.91;;;-144.47;66.51
64076;BME280;50327;51.328;12.324;2022-08-01T04:32:08;53324.84;;;-144.47;66.43
64076;BME280;50327;51.328;12.324;2022-08-01T04:34:38;53293.06;;;-144.47;66.68
64076;BME280;50327;51.328;12.324;2022-08-01T04:37:07;53308.97;;;-144.47;66.81
64076;BME280;50327;51.328;12.324;2022-08-01T04:39:34;53318.91;;;-144.47;66.77
64076;BME280;50327;51.328;12.324;2022-08-01T04:42:04;53301.03;;;-144.47;66.85
64076;BME280;50327;51.328;12.324;2022-08-01T04:44:31;53303.00;;;-144.47;66.99
64076;BME280;50327;51.328;12.324;2022-08-01T04:46:59;53318.91;;;-144.47;67.47
64076;BME280;50327;51.328;12.324;2022-08-01T04:49:24;53330.81;;;-144.47;67.38
64076;BME280;50327;51.328;12.324;2022-08-01T04:51:54;53275.19;;;-144.47;67.41
64076;BME280;50327;51.328;12.324;2022-08-01T04:54:34;53301.03;;;-144.47;67.25
64076;BME280;50327;51.328;12.324;2022-08-01T04:57:04;53320.88;;;-144.47;67.34
64076;BME280;50327;51.328;12.324;2022-08-01T04:59:31;53303.00;;;-144.47;67.50
64076;BME280;50327;51.328;12.324;2022-08-01T05:02:18;53281.16;;;-144.47;67.67
64076;BME280;50327;51.328;12.324;2022-08-01T05:04:45;53297.03;;;-144.47;67.93
64076;BME280;50327;51.328;12.324;2022-08-01T05:07:11;53314.91;;;-144.47;67.47
64076;BME280;50327;51.328;12.324;2022-08-01T05:09:38;53316.91;;;-144.47;67.13
64076;BME280;50327;51.328;12.324;2022-08-01T05:12:07;53281.16;;;-144.47;66.95
64076;BME280;50327;51.328;12.324;2022-08-01T05:14:33;53330.81;;;-144.47;66.95
64076;BME280;50327;51.328;12.324;2022-08-01T05:16:59;53283.13;;;-144.47;67.71
64076;BME280;50327;51.328;12.324;2022-08-01T05:19:31;53324.84;;;-144.47;67.83
64076;BME280;50327;51.328;12.324;2022-08-01T05:21:58;53308.97;;;-144.47;68.52
64076;BME280;50327;51.328;12.324;2022-08-01T05:24:23;53293.06;;;-144.47;69.56
64076;BME280;50327;51.328;12.324;2022-08-01T05:26:49;53324.84;;;-144.47;70.07
64076;BME280;50327;51.328;12.324;2022-08-01T05:29:15;53330.81;;;-144.47;69.90
64076;BME280;50327;51.328;12.324;2022-08-01T05:31:40;53306.97;;;-144.47;70.16
64076;BME280;50327;51.328;12.324;2022-08-01T05:34:06;53316.91;;;-144.47;69.71
64076;BME280;50327;51.328;12.324;2022-08-01T05:36:31;53305.00;;;-144.47;69.30
64076;BME280;50327;51.328;12.324;2022-08-01T05:38:57;53285.13;;;-144.47;69.15
64076;BME280;50327;51.328;12.324;2022-08-01T05:41:22;53336.78;;;-144.47;68.91
64076;BME280;50327;51.328;12.324;2022-08-01T05:43:48;53297.03;;;-144.47;68.96
64076;BME280;50327;51.328;12.324;2022-08-01T05:46:13;53293.06;;;-144.47;68.21
64076;BME280;50327;51.328;12.324;2022-08-01T05:48:39;53305.00;;;-144.47;68.41
64076;BME280;50327;51.328;12.324;2022-08-01T05:51:04;53299.03;;;-144.47;67.53
64076;BME280;50327;51.328;12.324;2022-08-01T05:53:30;53342.72;;;-144.47;67.01
64076;BME280;50327;51.328;12.324;2022-08-01T05:55:55;53303.00;;;-144.47;66.53
64076;BME280;50327;51.328;12.324;2022-08-01T05:58:21;53305.00;;;-144.47;66.04
64076;BME280;50327;51.328;12.324;2022-08-01T06:00:47;53283.13;;;-144.47;65.82
64076;BME280;50327;51.328;12.324;2022-08-01T06:03:12;53289.09;;;-144.47;65.86
64076;BME280;50327;51.328;12.324;2022-08-01T06:05:39;53285.13;;;-144.47;66.24
64076;BME280;50327;51.328;12.324;2022-08-01T06:08:05;53310.94;;;-144.47;66.96
64076;BME280;50327;51.328;12.324;2022-08-01T06:10:30;53295.06;;;-144.47;67.10
64076;BME280;50327;51.328;12.324;2022-08-01T06:12:55;53267.25;;;-144.47;66.94
64076;BME280;50327;51.328;12.324;2022-08-01T06:15:21;53293.06;;;-144.47;67.31
64076;BME280;50327;51.328;12.324;2022-08-01T06:17:46;53301.03;;;-144.47;67.33
64076;BME280;50327;51.328;12.324;2022-08-01T06:20:12;53299.03;;;-144.47;67.36
64076;BME280;50327;51.328;12.324;2022-08-01T06:22:37;53285.13;;;-144.47;68.00
64076;BME280;50327;51.328;12.324;2022-08-01T06:25:03;53305.00;;;-144.47;68.20
64076;BME280;50327;51.328;12.324;2022-08-01T06:27:28;53305.00;;;-144.47;68.15
64076;BME280;50327;51.328;12.324;2022-08-01T06:29:54;53293.06;;;-144.47;68.70
64076;BME280;50327;51.328;12.324;2022-08-01T06:32:23;53293.06;;;-144.47;68.19
64076;BME280;50327;51.328;12.324;2022-08-01T06:34:49;53312.94;;;-144.47;67.48
64076;BME280;50327;51.328;12.324;2022-08-01T06:37:15;53299.03;;;-144.47;68.23
64076;BME280;50327;51.328;12.324;2022-08-01T06:39:41;53328.81;;;-144.47;68.10
64076;BME280;50327;51.328;12.324;2022-08-01T06:42:06;53312.94;;;-144.47;68.20
64076;BME280;50327;51.328;12.324;2022-08-01T06:44:31;53314.91;;;-144.47;68.68
64076;BME280;50327;51.328;12.324;2022-08-01T06:46:57;53281.16;;;-144.47;68.33
64076;BME280;50327;51.328;12.324;2022-08-01T06:49:24;53269.22;;;-144.47;68.54
64076;BME280;50327;51.328;12.324;2022-08-01T06:51:49;53291.09;;;-144.47;68.07
64076;BME280;50327;51.328;12.324;2022-08-01T06:54:15;53310.94;;;-144.47;68.54
64076;BME280;50327;51.328;12.324;2022-08-01T06:56:41;53318.91;;;-144.47;68.80
64076;BME280;50327;51.328;12.324;2022-08-01T06:59:07;53306.97;;;-144.47;68.33
64076;BME280;50327;51.328;12.324;2022-08-01T07:01:32;53297.03;;;-144.47;69.04
64076;BME280;50327;51.328;12.324;2022-08-01T07:03:57;53301.03;;;-144.47;68.93
64076;BME280;50327;51.328;12.324;2022-08-01T07:06:23;53287.13;;;-144.47;68.92
64076;BME280;50327;51.328;12.324;2022-08-01T07:08:49;53305.00;;;-144.47;68.00
64076;BME280;50327;51.328;12.324;2022-08-01T07:11:15;53318.91;;;-144.47;66.46
64076;BME280;50327;51.328;12.324;2022-08-01T07:13:40;53312.94;;;-144.47;66.11
64076;BME280;50327;51.328;12.324;2022-08-01T07:16:06;53285.13;;;-144.47;64.69
64076;BME280;50327;51.328;12.324;2022-08-01T07:18:31;53269.22;;;-144.47;63.99
64076;BME280;50327;51.328;12.324;2022-08-01T07:20:56;53303.00;;;-144.47;64.48
64076;BME280;50327;51.328;12.324;2022-08-01T07:23:22;53295.06;;;-144.47;63.64
64076;BME280;50327;51.328;12.324;2022-08-01T07:25:47;53316.91;;;-144.47;63.51
64076;BME280;50327;51.328;12.324;2022-08-01T07:28:14;53283.13;;;-144.47;63.19
64076;BME280;50327;51.328;12.324;2022-08-01T07:30:40;53281.16;;;-144.47;62.56
64076;BME280;50327;51.328;12.324;2022-08-01T07:33:07;53291.09;;;-144.47;63.08
64076;BME280;50327;51.328;12.324;2022-08-01T07:35:33;53285.13;;;-144.47;62.49
64076;BME280;50327;51.328;12.324;2022-08-01T07:37:59;53283.13;;;-144.47;62.28
64076;BME280;50327;51.328;12.324;2022-08-01T07:40:24;53235.47;;;-144.47;60.97
64076;BME280;50327;51.328;12.324;2022-08-01T07:42:49;53243.41;;;-144.47;59.83
64076;BME280;50327;51.328;12.324;2022-08-01T07:45:15;53279.16;;;-144.47;60.16
64076;BME280;50327;51.328;12.324;2022-08-01T07:47:40;53271.22;;;-144.47;60.40
64076;BME280;50327;51.328;12.324;2022-08-01T07:50:06;53285.13;;;-144.47;67.93
64076;BME280;50327;51.328;12.324;2022-08-01T07:52:32;53303.00;;;-144.47;68.65
64076;BME280;50327;51.328;12.324;2022-08-01T07:54:58;53287.13;;;-144.47;69.34
64076;BME280;50327;51.328;12.324;2022-08-01T07:57:24;53277.19;;;-144.47;72.17
64076;BME280;50327;51.328;12.324;2022-08-01T07:59:49;53293.06;;;-144.47;70.76
64076;BME280;50327;51.328;12.324;2022-08-01T08:02:15;53332.81;;;-144.47;70.48
64076;BME280;50327;51.328;12.324;2022-08-01T08:04:41;53324.84;;;-144.47;71.85
64076;BME280;50327;51.328;12.324;2022-08-01T08:07:06;53287.13;;;-144.47;72.24
64076;BME280;50327;51.328;12.324;2022-08-01T08:09:31;53354.66;;;-144.47;71.45
64076;BME280;50327;51.328;12.324;2022-08-01T08:11:57;53295.06;;;-144.47;71.13
64076;BME280;50327;51.328;12.324;2022-08-01T08:14:22;53330.81;;;-144.47;70.15
64076;BME280;50327;51.328;12.324;2022-08-01T08:16:49;53326.84;;;-144.47;69.88
64076;BME280;50327;51.328;12.324;2022-08-01T08:19:14;53316.91;;;-144.47;69.11
64076;BME280;50327;51.328;12.324;2022-08-01T08:21:40;53328.81;;;-144.47;67.49
64076;BME280;50327;51.328;12.324;2022-08-01T08:24:07;53283.13;;;-144.47;65.99
64076;BME280;50327;51.328;12.324;2022-08-01T08:26:46;53275.19;;;-144.47;64.25
64076;BME280;50327;51.328;12.324;2022-08-01T08:29:11;53318.91;;;-144.47;62.34
64076;BME280;50327;51.328;12.324;2022-08-01T08:31:37;53308.97;;;-144.47;61.86
64076;BME280;50327;51.328;12.324;2022-08-01T08:34:02;53312.94;;;-144.47;62.23
64076;BME280;50327;51.328;12.324;2022-08-01T08:36:28;53297.03;;;-144.47;61.11
64076;BME280;50327;51.328;12.324;2022-08-01T08:38:53;53277.19;;;-144.47;60.89
64076;BME280;50327;51.328;12.324;2022-08-01T08:41:20;53308.97;;;-144.47;61.40
64076;BME280;50327;51.328;12.324;2022-08-01T08:43:47;53308.97;;;-144.47;60.84
64076;BME280;50327;51.328;12.324;2022-08-01T08:46:13;53326.84;;;-144.47;60.33
64076;BME280;50327;51.328;12.324;2022-08-01T08:48:42;53318.91;;;-144.47;59.89
64076;BME280;50327;51.328;12.324;2022-08-01T08:51:08;53293.06;;;-144.47;59.45
64076;BME280;50327;51.328;12.324;2022-08-01T08:53:37;53275.19;;;-144.47;59.47
64076;BME280;50327;51.328;12.324;2022-08-01T08:56:06;53253.34;;;-144.47;58.03
64076;BME280;50327;51.328;12.324;2022-08-01T08:58:34;53269.22;;;-144.47;58.72
64076;BME280;50327;51.328;12.324;2022-08-01T09:01:05;53235.47;;;-144.47;58.32
64076;BME280;50327;51.328;12.324;2022-08-01T09:03:32;53279.16;;;-144.47;58.08
64076;BME280;50327;51.328;12.324;2022-08-01T09:06:00;53247.38;;;-144.47;56.52
64076;BME280;50327;51.328;12.324;2022-08-01T09:08:26;53253.34;;;-144.47;56.35
64076;BME280;50327;51.328;12.324;2022-08-01T09:10:51;53201.69;;;-144.47;56.35
64076;BME280;50327;51.328;12.324;2022-08-01T09:13:17;53263.28;;;-144.47;57.13
64076;BME280;50327;51.328;12.324;2022-08-01T09:15:45;53221.56;;;-144.47;56.54
64076;BME280;50327;51.328;12.324;2022-08-01T09:26:29;53281.16;;;-144.47;55.69
64076;BME280;50327;51.328;12.324;2022-08-01T09:28:55;53259.31;;;-144.47;56.03
64076;BME280;50327;51.328;12.324;2022-08-01T09:31:21;53239.44;;;-144.47;56.49
64076;BME280;50327;51.328;12.324;2022-08-01T09:36:13;53285.13;;;-144.47;57.80
64076;BME280;50327;51.328;12.324;2022-08-01T09:38:38;53265.25;;;-144.47;57.53
64076;BME280;50327;51.328;12.324;2022-08-01T09:41:03;53275.19;;;-144.47;57.71
64076;BME280;50327;51.328;12.324;2022-08-01T09:43:30;53245.41;;;-144.47;57.73
64076;BME280;50327;51.328;12.324;2022-08-01T09:45:56;53253.34;;;-144.47;56.37
64076;BME280;50327;51.328;12.324;2022-08-01T09:48:23;53277.19;;;-144.47;56.01
64076;BME280;50327;51.328;12.324;2022-08-01T09:50:52;53275.19;;;-144.47;54.39
64076;BME280;50327;51.328;12.324;2022-08-01T09:53:18;53247.38;;;-144.47;54.63
64076;BME280;50327;51.328;12.324;2022-08-01T09:55:43;53237.44;;;-144.47;53.99
64076;BME280;50327;51.328;12.324;2022-08-01T09:58:12;53205.66;;;-144.47;53.51
64076;BME280;50327;51.328;12.324;2022-08-01T10:00:38;53237.44;;;-144.47;53.80
64076;BME280;50327;51.328;12.324;2022-08-01T10:03:23;53253.34;;;-144.47;53.31
64076;BME280;50327;51.328;12.324;2022-08-01T10:05:50;53273.22;;;-144.47;52.61
64076;BME280;50327;51.328;12.324;2022-08-01T10:08:16;53283.13;;;-144.47;53.12
64076;BME280;50327;51.328;12.324;2022-08-01T10:10:43;53219.56;;;-144.47;53.98
64076;BME280;50327;51.328;12.324;2022-08-01T10:13:28;53263.28;;;-144.47;54.60
64076;BME280;50327;51.328;12.324;2022-08-01T10:15:54;53241.44;;;-144.47;54.33
64076;BME280;50327;51.328;12.324;2022-08-01T10:18:20;53281.16;;;-144.47;53.83
64076;BME280;50327;51.328;12.324;2022-08-01T10:20:47;53227.53;;;-144.47;53.11
64076;BME280;50327;51.328;12.324;2022-08-01T10:23:13;53249.38;;;-144.47;51.20
64076;BME280;50327;51.328;12.324;2022-08-01T10:25:40;53217.59;;;-144.47;50.98
64076;BME280;50327;51.328;12.324;2022-08-01T10:28:16;53249.38;;;-144.47;50.15
64076;BME280;50327;51.328;12.324;2022-08-01T10:30:43;53251.34;;;-144.47;50.07
64076;BME280;50327;51.328;12.324;2022-08-01T10:33:10;53229.50;;;-144.47;49.50
64076;BME280;50327;51.328;12.324;2022-08-01T10:35:36;53219.56;;;-144.47;48.89
64076;BME280;50327;51.328;12.324;2022-08-01T10:38:03;53233.47;;;-144.47;48.19
64076;BME280;50327;51.328;12.324;2022-08-01T10:40:29;53217.59;;;-144.47;48.50
64076;BME280;50327;51.328;12.324;2022-08-01T10:42:56;53235.47;;;-144.47;48.34
64076;BME280;50327;51.328;12.324;2022-08-01T10:45:22;53217.59;;;-144.47;48.15
64076;BME280;50327;51.328;12.324;2022-08-01T10:48:09;53251.34;;;-144.47;47.52
64076;BME280;50327;51.328;12.324;2022-08-01T10:50:48;53193.75;;;-144.47;47.33
64076;BME280;50327;51.328;12.324;2022-08-01T10:53:16;53227.53;;;-144.47;46.48
64076;BME280;50327;51.328;12.324;2022-08-01T10:55:46;53233.47;;;-144.47;47.30
64076;BME280;50327;51.328;12.324;2022-08-01T10:58:11;53203.69;;;-144.47;46.75
64076;BME280;50327;51.328;12.324;2022-08-01T11:00:37;53209.66;;;-144.47;46.35
64076;BME280;50327;51.328;12.324;2022-08-01T11:03:03;53193.75;;;-144.47;46.13
64076;BME280;50327;51.328;12.324;2022-08-01T11:05:35;53217.59;;;-144.47;45.84
64076;BME280;50327;51.328;12.324;2022-08-01T11:08:10;53181.84;;;-144.47;45.80
64076;BME280;50327;51.328;12.324;2022-08-01T11:10:41;53177.88;;;-144.47;45.28
64076;BME280;50327;51.328;12.324;2022-08-01T11:13:09;53201.69;;;-144.47;45.14
64076;BME280;50327;51.328;12.324;2022-08-01T11:15:37;53229.50;;;-144.47;45.55
64076;BME280;50327;51.328;12.324;2022-08-01T11:18:29;53215.59;;;-144.47;45.98
64076;BME280;50327;51.328;12.324;2022-08-01T11:20:58;53217.59;;;-144.47;45.58
64076;BME280;50327;51.328;12.324;2022-08-01T11:23:25;53197.72;;;-144.47;44.52
64076;BME280;50327;51.328;12.324;2022-08-01T11:30:48;53207.66;;;-144.47;43.29
64076;BME280;50327;51.328;12.324;2022-08-01T11:33:16;53179.84;;;-144.47;44.14
64076;BME280;50327;51.328;12.324;2022-08-01T11:38:35;53197.72;;;-144.47;45.06
64076;BME280;50327;51.328;12.324;2022-08-01T11:54:37;53197.72;;;-144.47;46.18
64076;BME280;50327;51.328;12.324;2022-08-01T11:57:07;53185.81;;;-144.47;46.40
64076;BME280;50327;51.328;12.324;2022-08-01T11:59:54;53193.75;;;-144.47;46.48
64076;BME280;50327;51.328;12.324;2022-08-01T12:02:32;53205.66;;;-144.47;46.81
64076;BME280;50327;51.328;12.324;2022-08-01T12:07:26;53203.69;;;-144.47;47.97
64076;BME280;50327;51.328;12.324;2022-08-01T12:12:31;53205.66;;;-144.47;48.29
64076;BME280;50327;51.328;12.324;2022-08-01T12:14:59;53195.75;;;-144.47;48.90
64076;BME280;50327;51.328;12.324;2022-08-01T12:17:37;53207.66;;;-144.47;48.78
64076;BME280;50327;51.328;12.324;2022-08-01T12:20:09;53201.69;;;-144.47;47.97
64076;BME280;50327;51.328;12.324;2022-08-01T12:22:35;53241.44;;;-144.47;46.89
64076;BME280;50327;51.328;12.324;2022-08-01T12:25:10;53221.56;;;-144.47;46.77
64076;BME280;50327;51.328;12.324;2022-08-01T12:27:37;53203.69;;;-144.47;46.65
64076;BME280;50327;51.328;12.324;2022-08-01T12:30:08;53225.53;;;-144.47;46.14
64076;BME280;50327;51.328;12.324;2022-08-01T12:32:36;53179.84;;;-144.47;46.15
64076;BME280;50327;51.328;12.324;2022-08-01T12:35:06;53229.50;;;-144.47;45.87
64076;BME280;50327;51.328;12.324;2022-08-01T12:37:43;53201.69;;;-144.47;45.54
64076;BME280;50327;51.328;12.324;2022-08-01T12:42:40;53187.78;;;-144.47;44.43
64076;BME280;50327;51.328;12.324;2022-08-01T12:45:11;53179.84;;;-144.47;43.71
64076;BME280;50327;51.328;12.324;2022-08-01T12:47:38;53169.91;;;-144.47;43.67
64076;BME280;50327;51.328;12.324;2022-08-01T12:50:15;53197.72;;;-144.47;43.17
64076;BME280;50327;51.328;12.324;2022-08-01T12:52:41;53169.91;;;-144.47;43.06
64076;BME280;50327;51.328;12.324;2022-08-01T12:57:35;53189.78;;;-144.47;43.37
64076;BME280;50327;51.328;12.324;2022-08-01T13:00:17;53217.59;;;-144.47;42.21
64076;BME280;50327;51.328;12.324;2022-08-01T13:02:46;53148.06;;;-144.47;41.64
64076;BME280;50327;51.328;12.324;2022-08-01T13:05:12;53158.00;;;-144.47;40.87
64076;BME280;50327;51.328;12.324;2022-08-01T13:07:49;53193.75;;;-144.47;40.32
64076;BME280;50327;51.328;12.324;2022-08-01T13:10:24;53175.88;;;-144.47;40.28
64076;BME280;50327;51.328;12.324;2022-08-01T13:12:55;53169.91;;;-144.47;40.58
64076;BME280;50327;51.328;12.324;2022-08-01T13:15:31;53118.28;;;-144.47;40.46
64076;BME280;50327;51.328;12.324;2022-08-01T13:17:58;53138.13;;;-144.47;38.88
64076;BME280;50327;51.328;12.324;2022-08-01T13:20:32;53142.09;;;-144.47;38.28
64076;BME280;50327;51.328;12.324;2022-08-01T13:23:16;53148.06;;;-144.47;39.81
64076;BME280;50327;51.328;12.324;2022-08-01T13:25:57;53146.09;;;-144.47;41.42
64076;BME280;50327;51.328;12.324;2022-08-01T13:28:26;53167.94;;;-144.47;41.72
64076;BME280;50327;51.328;12.324;2022-08-01T13:31:01;53203.69;;;-144.47;42.73